createdAt,value
2018-12-17T00:02:25.090Z,47.27
2018-12-17T00:04:51.814Z,50.75
2018-12-17T00:07:18.531Z,53.95
2018-12-17T00:09:45.242Z,52.88
2018-12-17T00:12:16.513Z,49.65
2018-12-17T00:14:40.701Z,48.98
2018-12-17T00:17:07.399Z,54.95
2018-12-17T00:19:34.150Z,51.33
2018-12-17T00:22:00.851Z,54.85
2018-12-17T00:24:27.553Z,52.70
2018-12-17T00:26:54.272Z,51.58
2018-12-17T00:29:20.972Z,51.23
2018-12-17T00:31:47.713Z,50.92
2018-12-17T00:34:14.423Z,57.53
2018-12-17T00:36:41.130Z,56.68
2018-12-17T00:39:07.870Z,54.18
2018-12-17T00:41:34.615Z,51.65
2018-12-17T00:44:01.371Z,52.08
2018-12-17T00:46:28.146Z,49.63
2018-12-17T00:48:54.948Z,49.95
2018-12-17T00:51:21.881Z,50.17
2018-12-17T00:53:48.633Z,53.28
2018-12-17T00:56:15.351Z,52.15
2018-12-17T00:58:42.078Z,55.48
2018-12-17T01:01:08.848Z,45.90
2018-12-17T01:03:35.587Z,46.83
2018-12-17T01:06:02.299Z,52.27
2018-12-17T01:08:29.160Z,49.95
2018-12-17T01:10:55.951Z,48.92
2018-12-17T01:13:22.655Z,52.62
2018-12-17T01:15:49.493Z,50.15
2018-12-17T01:18:16.184Z,56.37
2018-12-17T01:20:42.886Z,52.38
2018-12-17T01:23:09.626Z,57.67
2018-12-17T01:25:36.339Z,48.73
2018-12-17T01:28:03.089Z,47.85
2018-12-17T01:30:29.803Z,55.88
2018-12-17T01:32:56.567Z,49.88
2018-12-17T01:35:23.274Z,50.90
2018-12-17T01:37:49.993Z,53.23
2018-12-17T01:40:16.808Z,50.40
2018-12-17T01:42:43.509Z,49.73
2018-12-17T01:45:10.255Z,46.13
2018-12-17T01:47:37.380Z,55.90
2018-12-17T01:50:05.013Z,56.50
2018-12-17T01:52:32.256Z,53.52
2018-12-17T01:54:59.787Z,57.50
2018-12-17T01:57:26.657Z,47.20
2018-12-17T01:59:53.362Z,52.98
2018-12-17T02:02:20.091Z,50.85
2018-12-17T02:04:46.801Z,54.48
2018-12-17T02:07:14.482Z,53.58
2018-12-17T02:09:42.054Z,55.28
2018-12-17T02:12:08.764Z,50.12
2018-12-17T02:14:35.479Z,60.70
2018-12-17T02:17:02.175Z,54.13
2018-12-17T02:19:28.891Z,61.05
2018-12-17T02:21:55.605Z,51.35
2018-12-17T02:24:22.302Z,57.43
2018-12-17T02:26:49.045Z,58.48
2018-12-17T02:29:15.785Z,59.45
2018-12-17T02:31:42.487Z,59.63
2018-12-17T02:34:09.202Z,54.83
2018-12-17T02:36:36.313Z,55.50
2018-12-17T02:39:06.028Z,61.18
2018-12-17T02:41:33.001Z,66.33
2018-12-17T02:44:00.565Z,58.58
2018-12-17T02:46:28.521Z,64.65
2018-12-17T02:48:55.353Z,62.60
2018-12-17T02:51:22.205Z,56.95
2018-12-17T02:53:49.117Z,52.50
2018-12-17T02:56:16.227Z,58.23
2018-12-17T02:58:44.140Z,55.65
2018-12-17T03:01:11.120Z,60.98
2018-12-17T03:03:37.854Z,58.40
2018-12-17T03:06:04.610Z,58.28
2018-12-17T03:08:31.839Z,62.13
2018-12-17T03:10:58.724Z,64.82
2018-12-17T03:13:25.727Z,53.48
2018-12-17T03:15:52.813Z,54.05
2018-12-17T03:18:19.877Z,58.00
2018-12-17T03:20:46.709Z,49.95
2018-12-17T03:23:13.590Z,57.53
2018-12-17T03:25:40.445Z,51.42
2018-12-17T03:28:07.576Z,55.83
2018-12-17T03:30:34.803Z,59.38
2018-12-17T03:33:01.711Z,53.08
2018-12-17T03:35:28.478Z,58.90
2018-12-17T03:37:55.399Z,51.68
2018-12-17T03:40:22.184Z,57.85
2018-12-17T03:42:48.917Z,48.38
2018-12-17T03:45:15.926Z,48.73
2018-12-17T03:47:42.630Z,52.90
2018-12-17T03:50:09.380Z,47.75
2018-12-17T03:52:36.121Z,48.25
2018-12-17T03:55:03.135Z,46.30
2018-12-17T03:57:29.885Z,43.90
2018-12-17T03:59:56.806Z,43.63
2018-12-17T04:02:23.858Z,42.65
2018-12-17T04:04:50.801Z,49.85
2018-12-17T04:07:17.516Z,44.03
2018-12-17T04:09:44.313Z,40.35
2018-12-17T04:12:11.894Z,39.40
2018-12-17T04:14:39.419Z,40.95
2018-12-17T04:17:06.167Z,42.83
2018-12-17T04:19:32.899Z,45.98
2018-12-17T04:21:59.620Z,40.30
2018-12-17T04:24:26.319Z,46.20
2018-12-17T04:26:53.042Z,50.00
2018-12-17T04:29:19.746Z,46.63
2018-12-17T04:31:46.474Z,43.42
2018-12-17T04:34:13.231Z,50.12
2018-12-17T04:36:39.978Z,42.27
2018-12-17T04:39:06.764Z,42.90
2018-12-17T04:41:33.554Z,47.20
2018-12-17T04:44:00.271Z,41.95
2018-12-17T04:46:26.979Z,42.35
2018-12-17T04:48:54.171Z,40.80
2018-12-17T04:51:21.015Z,40.73
2018-12-17T04:53:58.172Z,42.78
2018-12-17T04:56:24.907Z,39.65
2018-12-17T04:58:51.629Z,43.87
2018-12-17T05:01:18.393Z,46.65
2018-12-17T05:03:45.145Z,48.92
2018-12-17T05:06:11.880Z,35.20
2018-12-17T05:08:38.647Z,41.50
2018-12-17T05:11:05.358Z,38.67
2018-12-17T05:13:32.105Z,35.55
2018-12-17T05:15:58.819Z,35.30
2018-12-17T05:18:25.541Z,37.80
2018-12-17T05:20:52.340Z,40.28
2018-12-17T05:23:21.254Z,38.98
2018-12-17T05:25:49.972Z,37.08
2018-12-17T05:28:17.908Z,41.70
2018-12-17T05:30:45.438Z,41.23
2018-12-17T05:33:12.587Z,39.65
2018-12-17T05:35:39.335Z,39.98
2018-12-17T05:38:06.046Z,44.83
2018-12-17T05:40:32.781Z,35.83
2018-12-17T05:42:59.513Z,37.00
2018-12-17T05:45:26.317Z,33.08
2018-12-17T05:47:53.031Z,38.35
2018-12-17T05:50:19.911Z,34.30
2018-12-17T05:52:46.664Z,30.05
2018-12-17T05:55:13.412Z,31.27
2018-12-17T05:57:40.400Z,37.17
2018-12-17T06:00:07.364Z,37.00
2018-12-17T06:02:34.073Z,37.15
2018-12-17T06:05:00.810Z,35.52
2018-12-17T06:07:27.530Z,41.13
2018-12-17T06:09:54.274Z,36.42
2018-12-17T06:12:20.985Z,35.08
2018-12-17T06:14:47.705Z,32.42
2018-12-17T06:17:14.506Z,36.05
2018-12-17T06:19:41.220Z,37.93
2018-12-17T06:22:07.953Z,33.05
2018-12-17T06:24:34.706Z,38.80
2018-12-17T06:27:01.442Z,38.35
2018-12-17T06:29:28.182Z,35.60
2018-12-17T06:31:54.922Z,36.65
2018-12-17T06:34:21.646Z,31.37
2018-12-17T06:36:48.702Z,39.83
2018-12-17T06:39:15.468Z,37.38
2018-12-17T06:41:42.187Z,35.58
2018-12-17T06:44:08.991Z,36.10
2018-12-17T06:46:35.708Z,32.25
2018-12-17T06:49:02.445Z,31.20
2018-12-17T06:51:29.349Z,38.33
2018-12-17T06:53:56.083Z,35.55
2018-12-17T06:56:22.826Z,35.58
2018-12-17T06:58:49.578Z,31.82
2018-12-17T07:01:16.330Z,31.85
2018-12-17T07:03:43.048Z,31.80
2018-12-17T07:06:09.786Z,34.27
2018-12-17T07:08:36.522Z,28.32
2018-12-17T07:11:03.223Z,27.82
2018-12-17T07:13:29.940Z,32.33
2018-12-17T07:15:56.670Z,29.02
2018-12-17T07:18:23.377Z,30.97
2018-12-17T07:20:50.158Z,31.12
2018-12-17T07:23:16.910Z,30.02
2018-12-17T07:25:43.662Z,30.12
2018-12-17T07:28:10.357Z,34.18
2018-12-17T07:30:37.078Z,33.95
2018-12-17T07:33:03.837Z,27.45
2018-12-17T07:35:30.548Z,31.02
2018-12-17T07:37:57.256Z,30.85
2018-12-17T07:40:23.977Z,30.08
2018-12-17T07:42:50.688Z,29.55
2018-12-17T07:45:17.408Z,30.57
2018-12-17T07:47:44.160Z,30.10
2018-12-17T07:50:10.886Z,32.65
2018-12-17T07:52:37.611Z,32.95
2018-12-17T07:55:04.878Z,33.58
2018-12-17T07:57:31.618Z,46.23
2018-12-17T07:59:58.463Z,34.48
2018-12-17T08:02:25.187Z,32.13
2018-12-17T08:04:51.899Z,29.30
2018-12-17T08:07:18.658Z,30.68
2018-12-17T08:09:45.379Z,31.73
2018-12-17T08:12:12.084Z,30.57
2018-12-17T08:14:38.801Z,33.08
2018-12-17T08:17:05.722Z,33.35
2018-12-17T08:19:32.509Z,33.30
2018-12-17T08:21:59.221Z,31.33
2018-12-17T08:24:25.960Z,33.78
2018-12-17T08:26:52.686Z,30.77
2018-12-17T08:29:19.438Z,31.90
2018-12-17T08:31:46.779Z,33.83
2018-12-17T08:34:13.502Z,31.27
2018-12-17T08:36:40.563Z,31.57
2018-12-17T08:39:07.279Z,31.97
2018-12-17T08:41:34.004Z,29.00
2018-12-17T08:44:00.734Z,26.60
2018-12-17T08:46:27.458Z,31.95
2018-12-17T08:48:54.178Z,27.55
2018-12-17T08:51:20.909Z,29.70
2018-12-17T08:53:47.654Z,28.15
2018-12-17T08:56:14.375Z,27.40
2018-12-17T08:58:41.088Z,26.42
2018-12-17T12:05:33.443Z,11.00
2018-12-17T12:08:00.216Z,11.18
2018-12-17T12:10:27.521Z,10.40
2018-12-17T12:12:54.274Z,11.97
2018-12-17T12:15:20.986Z,13.20
2018-12-17T12:17:47.786Z,12.37
2018-12-17T12:20:14.523Z,11.48
2018-12-17T12:22:41.231Z,10.58
2018-12-17T12:25:08.423Z,11.43
2018-12-17T12:27:35.117Z,9.70
2018-12-17T12:30:02.083Z,13.25
2018-12-17T12:32:28.967Z,13.10
2018-12-17T12:34:55.924Z,15.60
2018-12-17T12:37:22.677Z,11.75
2018-12-17T12:39:49.390Z,17.52
2018-12-17T12:42:16.136Z,11.48
2018-12-17T12:44:42.880Z,10.72
2018-12-17T12:47:09.613Z,12.10
2018-12-17T12:49:36.313Z,8.75
2018-12-17T12:52:03.069Z,12.18
2018-12-17T12:54:29.777Z,23.95
2018-12-17T12:56:56.519Z,25.65
2018-12-17T12:59:23.279Z,14.95
2018-12-17T13:01:49.987Z,15.32
2018-12-17T13:04:16.688Z,12.98
2018-12-17T13:06:43.432Z,10.93
2018-12-17T13:09:10.150Z,11.93
2018-12-17T13:11:36.841Z,11.85
2018-12-17T13:14:03.570Z,10.40
2018-12-17T13:16:30.289Z,10.93
2018-12-17T13:18:57.022Z,12.55
2018-12-17T13:21:23.721Z,12.05
2018-12-17T13:23:50.425Z,12.20
2018-12-17T13:26:17.157Z,12.15
2018-12-17T13:28:43.877Z,10.95
2018-12-17T13:31:14.658Z,9.60
2018-12-17T13:33:39.404Z,14.47
2018-12-17T13:36:06.767Z,15.23
2018-12-17T13:38:33.526Z,11.00
2018-12-17T13:41:00.245Z,9.08
2018-12-17T13:43:26.958Z,9.70
2018-12-17T13:45:53.686Z,9.08
2018-12-17T13:48:20.425Z,9.00
2018-12-17T13:50:49.076Z,12.20
2018-12-17T13:53:21.982Z,10.68
2018-12-17T13:55:48.685Z,17.12
2018-12-17T13:58:15.448Z,10.03
2018-12-17T14:00:42.165Z,11.97
2018-12-17T14:03:08.884Z,9.48
2018-12-17T14:05:35.625Z,11.78
2018-12-17T14:08:02.330Z,10.38
2018-12-17T14:10:49.644Z,12.23
2018-12-17T14:13:16.362Z,11.60
2018-12-17T14:15:49.018Z,14.45
2018-12-17T14:18:21.586Z,14.70
2018-12-17T14:20:54.126Z,12.98
2018-12-17T14:23:20.866Z,12.90
2018-12-17T14:25:47.573Z,13.45
2018-12-17T14:28:14.286Z,13.95
2018-12-17T14:30:41.147Z,11.40
2018-12-17T14:33:07.927Z,11.88
2018-12-17T14:35:34.645Z,11.20
2018-12-17T14:38:02.255Z,12.95
2018-12-17T14:40:29.476Z,12.80
2018-12-17T14:42:56.182Z,12.43
2018-12-17T14:45:23.018Z,12.63
2018-12-17T14:47:49.725Z,12.53
2018-12-17T14:50:16.430Z,12.37
2018-12-17T14:52:43.154Z,12.53
2018-12-17T14:55:10.149Z,12.58
2018-12-17T14:57:37.033Z,13.32
2018-12-17T15:00:05.202Z,14.05
2018-12-17T15:02:31.941Z,15.30
2018-12-17T15:04:58.698Z,13.28
2018-12-17T15:07:25.416Z,12.93
2018-12-17T15:09:52.184Z,13.80
2018-12-17T15:12:18.938Z,14.30
2018-12-17T15:14:45.639Z,14.18
2018-12-17T15:17:12.341Z,12.78
2018-12-17T15:19:39.104Z,12.88
2018-12-17T15:22:05.811Z,14.70
2018-12-17T15:24:32.543Z,15.78
2018-12-17T15:26:59.384Z,11.18
2018-12-17T15:29:26.093Z,11.12
2018-12-17T15:31:52.844Z,15.53
2018-12-17T15:34:19.546Z,12.20
2018-12-17T15:36:46.237Z,13.43
2018-12-17T15:39:13.230Z,14.73
2018-12-17T15:41:39.949Z,13.83
2018-12-17T15:44:06.661Z,13.43
2018-12-17T15:46:33.422Z,15.88
2018-12-17T15:49:00.181Z,14.07
2018-12-17T15:51:26.931Z,12.93
2018-12-17T15:53:53.672Z,12.20
2018-12-17T15:56:20.374Z,12.50
2018-12-17T15:58:47.094Z,13.32
2018-12-17T16:01:13.886Z,11.90
2018-12-17T16:03:40.608Z,13.15
2018-12-17T16:06:07.328Z,12.65
2018-12-17T16:08:34.085Z,14.65
2018-12-17T16:11:00.796Z,12.93
2018-12-17T16:13:27.506Z,11.83
2018-12-17T16:15:54.293Z,13.65
2018-12-17T16:18:21.061Z,13.43
2018-12-17T16:20:47.910Z,14.13
2018-12-17T16:23:14.634Z,16.45
2018-12-17T16:25:41.335Z,16.32
2018-12-17T16:28:08.291Z,12.85
2018-12-17T16:30:35.099Z,12.75
2018-12-17T16:33:01.900Z,13.85
2018-12-17T16:35:28.788Z,11.48
2018-12-17T16:37:55.614Z,13.88
2018-12-17T16:40:22.504Z,12.80
2018-12-17T16:42:49.456Z,14.73
2018-12-17T16:45:16.175Z,15.98
2018-12-17T16:47:42.926Z,13.58
2018-12-17T16:50:09.762Z,12.50
2018-12-17T16:52:36.502Z,11.70
2018-12-17T16:55:03.336Z,14.93
2018-12-17T16:57:30.085Z,13.95
2018-12-17T16:59:56.805Z,14.87
2018-12-17T17:02:23.545Z,13.22
2018-12-17T17:04:50.258Z,14.10
2018-12-17T17:07:17.107Z,15.32
2018-12-17T17:09:44.318Z,14.65
2018-12-17T17:12:11.101Z,16.23
2018-12-17T17:14:37.883Z,14.47
2018-12-17T17:17:05.397Z,14.53
2018-12-17T17:19:33.516Z,18.30
2018-12-17T17:22:00.887Z,16.37
2018-12-17T17:24:27.671Z,16.48
2018-12-17T17:26:54.462Z,16.62
2018-12-17T17:29:21.193Z,15.38
2018-12-17T17:31:47.910Z,16.05
2018-12-17T17:34:14.943Z,15.72
2018-12-17T17:36:41.705Z,18.02
2018-12-17T17:39:08.586Z,16.48
2018-12-17T17:41:36.906Z,20.57
2018-12-17T17:44:03.638Z,16.85
2018-12-17T17:46:30.408Z,17.30
2018-12-17T17:48:57.122Z,20.48
2018-12-17T17:51:23.893Z,17.37
2018-12-17T17:53:50.756Z,16.80
2018-12-17T17:56:17.618Z,18.17
2018-12-17T17:58:44.440Z,16.85
2018-12-17T18:01:11.270Z,17.55
2018-12-17T18:03:38.052Z,18.62
2018-12-17T18:06:04.808Z,19.27
2018-12-17T18:08:31.632Z,17.98
2018-12-17T18:10:58.417Z,21.15
2018-12-17T18:13:25.208Z,20.30
2018-12-17T18:15:52.005Z,18.75
2018-12-17T18:18:18.879Z,18.15
2018-12-17T18:20:45.835Z,20.40
2018-12-17T18:23:19.395Z,21.20
2018-12-17T18:25:46.319Z,19.82
2018-12-17T18:28:14.824Z,21.77
2018-12-17T18:30:41.716Z,23.27
2018-12-17T18:36:04.229Z,20.52
2018-12-17T18:38:30.954Z,20.52
2018-12-17T18:40:57.710Z,22.93
2018-12-17T18:43:24.449Z,22.30
2018-12-17T18:45:51.175Z,23.87
2018-12-17T18:48:18.094Z,23.07
2018-12-17T18:50:44.833Z,25.05
2018-12-17T18:53:11.567Z,25.70
2018-12-17T18:55:38.362Z,26.85
2018-12-17T18:58:05.104Z,30.82
2018-12-17T19:00:31.823Z,27.25
2018-12-17T19:02:58.670Z,27.10
2018-12-17T19:05:25.378Z,27.17
2018-12-17T19:07:52.120Z,28.42
2018-12-17T19:10:19.018Z,30.43
2018-12-17T19:12:45.745Z,35.08
2018-12-17T19:15:12.522Z,37.23
2018-12-17T19:17:40.484Z,35.03
2018-12-17T19:20:09.336Z,34.88
2018-12-17T19:22:36.251Z,33.88
2018-12-17T19:25:03.202Z,31.77
2018-12-17T19:27:30.899Z,30.85
2018-12-17T19:29:57.631Z,32.98
2018-12-17T19:32:25.758Z,33.67
2018-12-17T19:34:52.659Z,31.02
2018-12-17T19:37:21.357Z,31.95
2018-12-17T19:39:48.351Z,34.10
2018-12-17T19:42:18.559Z,32.17
2018-12-17T19:44:45.425Z,35.00
2018-12-17T19:47:12.368Z,29.42
2018-12-17T19:49:39.319Z,27.42
2018-12-17T19:52:06.119Z,30.00
2018-12-17T19:54:33.266Z,28.15
2018-12-17T19:57:00.898Z,28.90
2018-12-17T19:59:28.142Z,33.13
2018-12-17T20:01:55.018Z,30.68
2018-12-17T20:04:23.428Z,30.27
2018-12-17T20:06:50.967Z,31.05
2018-12-17T20:09:17.766Z,30.52
2018-12-17T20:11:46.830Z,29.32
2018-12-17T20:14:14.347Z,28.90
2018-12-17T20:16:42.036Z,29.25
2018-12-17T20:19:11.512Z,26.90
2018-12-17T20:21:38.951Z,32.75
2018-12-17T20:24:06.394Z,28.17
2018-12-17T20:26:41.861Z,28.27
2018-12-17T20:29:10.275Z,30.68
2018-12-17T20:31:37.036Z,28.80
2018-12-17T20:34:04.291Z,31.65
2018-12-17T20:36:32.000Z,27.05
2018-12-17T20:38:59.346Z,27.98
2018-12-17T20:41:27.025Z,29.55
2018-12-17T20:43:54.375Z,29.95
2018-12-17T20:46:21.908Z,30.27
2018-12-17T20:48:49.246Z,30.48
2018-12-17T20:51:21.416Z,32.95
2018-12-17T20:53:48.270Z,28.77
2018-12-17T20:56:17.802Z,29.98
2018-12-17T20:58:44.692Z,31.33
2018-12-17T21:01:11.507Z,31.40
2018-12-17T21:03:38.333Z,33.05
2018-12-17T21:06:06.486Z,34.75
2018-12-17T21:08:36.667Z,32.08
2018-12-17T21:11:03.422Z,34.00
2018-12-17T21:13:30.237Z,31.05
2018-12-17T21:16:00.265Z,34.55
2018-12-17T21:18:26.994Z,34.58
2018-12-17T21:20:53.699Z,37.93
2018-12-17T21:23:22.336Z,33.45
2018-12-17T21:25:50.258Z,35.78
2018-12-17T21:28:17.525Z,32.25
2018-12-17T21:30:44.754Z,33.08
2018-12-17T21:33:11.540Z,34.92
2018-12-17T21:35:38.349Z,34.95
2018-12-17T21:38:05.174Z,35.75
2018-12-17T21:40:32.025Z,37.13
2018-12-17T21:42:59.554Z,35.23
2018-12-17T21:45:26.289Z,44.75
2018-12-17T21:47:53.020Z,34.50
2018-12-17T21:50:19.737Z,36.53
2018-12-17T21:52:46.501Z,38.23
2018-12-17T21:55:13.223Z,42.50
2018-12-17T21:57:39.987Z,41.68
2018-12-17T22:00:07.108Z,34.90
2018-12-17T22:02:33.806Z,40.00
2018-12-17T22:05:00.511Z,39.92
2018-12-17T22:07:27.253Z,38.15
2018-12-17T22:09:53.965Z,38.90
2018-12-17T22:12:20.716Z,41.30
2018-12-17T22:14:47.462Z,38.13
2018-12-17T22:17:14.185Z,41.10
2018-12-17T22:19:40.953Z,37.05
2018-12-17T22:22:07.678Z,38.73
2018-12-17T22:24:34.415Z,39.18
2018-12-17T22:27:01.181Z,40.90
2018-12-17T22:29:27.924Z,43.90
2018-12-17T22:31:54.693Z,44.50
2018-12-17T22:34:21.441Z,46.37
2018-12-17T22:36:48.177Z,43.05
2018-12-17T22:39:14.896Z,37.80
2018-12-17T22:41:41.655Z,48.90
2018-12-17T22:44:08.372Z,42.62
2018-12-17T22:46:35.098Z,40.88
2018-12-17T22:49:01.881Z,40.48
2018-12-17T22:51:28.596Z,33.83
2018-12-17T22:53:55.319Z,42.55
2018-12-17T22:56:22.072Z,37.10
2018-12-17T22:58:48.808Z,37.05
2018-12-17T23:01:15.581Z,34.00
2018-12-17T23:03:42.332Z,35.45
2018-12-17T23:06:09.060Z,40.63
2018-12-17T23:08:37.032Z,35.15
2018-12-17T23:11:09.720Z,37.33
2018-12-17T23:13:42.229Z,31.68
2018-12-17T23:16:14.899Z,40.43
2018-12-17T23:18:41.413Z,41.60
2018-12-17T23:21:08.139Z,39.35
2018-12-17T23:23:34.883Z,42.30
2018-12-17T23:26:01.655Z,40.90
2018-12-17T23:28:28.368Z,46.05
2018-12-17T23:30:55.140Z,46.63
2018-12-17T23:33:21.859Z,46.98
2018-12-17T23:35:48.649Z,48.55
2018-12-17T23:38:15.408Z,50.08
2018-12-17T23:40:42.126Z,48.20
2018-12-17T23:43:08.849Z,45.05
2018-12-17T23:45:35.584Z,49.00
2018-12-17T23:48:02.355Z,43.90
2018-12-17T23:50:29.092Z,46.02
2018-12-17T23:52:55.972Z,51.77
2018-12-17T23:55:22.716Z,47.43
2018-12-17T23:57:49.428Z,50.98
